sensor_id;sensor_type;location;lat;lon;timestamp;pressure;altitude;pressure_sealevel;temperature;humidity
64876;BME280;51369;49.862;9.908;2024-01-15T00:01:07;97080.56;;;-1.02;72.92
64876;BME280;51369;49.862;9.908;2024-01-15T00:03:32;97077.91;;;-1.02;73.06
64876;BME280;51369;49.862;9.908;2024-01-15T00:05:58;97075.25;;;-1.01;73.19
64876;BME280;51369;49.862;9.908;2024-01-15T00:08:23;97072.63;;;-1.02;73.21
64876;BME280;51369;49.862;9.908;2024-01-15T00:10:49;97073.53;;;-1.03;72.75
64876;BME280;51369;49.862;9.908;2024-01-15T00:13:15;97060.31;;;-1.05;73.20
64876;BME280;51369;49.862;9.908;2024-01-15T00:15:41;97070.03;;;-1.05;73.82
64876;BME280;51369;49.862;9.908;2024-01-15T00:18:06;97078.88;;;-1.06;73.34
64876;BME280;51369;49.862;9.908;2024-01-15T00:20:31;97074.50;;;-1.09;73.95
64876;BME280;51369;49.862;9.908;2024-01-15T00:22:57;97080.66;;;-1.08;74.27
64876;BME280;51369;49.862;9.908;2024-01-15T00:25:22;97086.91;;;-1.11;74.10
64876;BME280;51369;49.862;9.908;2024-01-15T00:27:47;97078.06;;;-1.11;73.85
64876;BME280;51369;49.862;9.908;2024-01-15T00:30:13;97074.56;;;-1.12;73.77
64876;BME280;51369;49.862;9.908;2024-01-15T00:32:38;97073.66;;;-1.11;73.98
64876;BME280;51369;49.862;9.908;2024-01-15T00:35:04;97078.09;;;-1.13;74.13
64876;BME280;51369;49.862;9.908;2024-01-15T00:37:29;97075.44;;;-1.11;74.25
64876;BME280;51369;49.862;9.908;2024-01-15T00:39:55;97070.13;;;-1.11;73.89
64876;BME280;51369;49.862;9.908;2024-01-15T00:42:20;97070.13;;;-1.11;74.05
64876;BME280;51369;49.862;9.908;2024-01-15T00:44:45;97063.94;;;-1.10;74.28
64876;BME280;51369;49.862;9.908;2024-01-15T00:47:11;97058.63;;;-1.10;73.71
64876;BME280;51369;49.862;9.908;2024-01-15T00:49:36;97054.19;;;-1.08;74.13
64876;BME280;51369;49.862;9.908;2024-01-15T00:52:02;97042.75;;;-1.10;74.41
64876;BME280;51369;49.862;9.908;2024-01-15T00:54:27;97043.63;;;-1.10;73.95
64876;BME280;51369;49.862;9.908;2024-01-15T00:56:52;97040.97;;;-1.10;74.24
64876;BME280;51369;49.862;9.908;2024-01-15T00:59:18;97041.00;;;-1.11;73.09
64876;BME280;51369;49.862;9.908;2024-01-15T01:01:46;97046.28;;;-1.10;73.65
64876;BME280;51369;49.862;9.908;2024-01-15T01:04:12;97032.16;;;-1.10;73.90
64876;BME280;51369;49.862;9.908;2024-01-15T01:06:38;97033.97;;;-1.12;73.54
64876;BME280;51369;49.862;9.908;2024-01-15T01:09:03;97014.50;;;-1.11;73.82
64876;BME280;51369;49.862;9.908;2024-01-15T01:11:30;97015.44;;;-1.14;73.26
64876;BME280;51369;49.862;9.908;2024-01-15T01:13:56;97017.22;;;-1.14;73.45
64876;BME280;51369;49.862;9.908;2024-01-15T01:16:22;97023.38;;;-1.14;73.32
64876;BME280;51369;49.862;9.908;2024-01-15T01:18:47;97031.34;;;-1.14;73.17
64876;BME280;51369;49.862;9.908;2024-01-15T01:21:13;97040.16;;;-1.13;73.52
64876;BME280;51369;49.862;9.908;2024-01-15T01:23:38;97039.25;;;-1.12;73.55
64876;BME280;51369;49.862;9.908;2024-01-15T01:26:03;97048.94;;;-1.11;73.86
64876;BME280;51369;49.862;9.908;2024-01-15T01:28:29;97041.91;;;-1.12;73.65
64876;BME280;51369;49.862;9.908;2024-01-15T01:30:54;97038.34;;;-1.11;73.92
64876;BME280;51369;49.862;9.908;2024-01-15T01:33:20;97041.00;;;-1.11;73.73
64876;BME280;51369;49.862;9.908;2024-01-15T01:35:45;97041.91;;;-1.12;73.23
64876;BME280;51369;49.862;9.908;2024-01-15T01:38:12;97038.34;;;-1.11;73.36
64876;BME280;51369;49.862;9.908;2024-01-15T01:40:37;97056.88;;;-1.10;73.84
64876;BME280;51369;49.862;9.908;2024-01-15T01:43:04;97056.88;;;-1.10;74.08
64876;BME280;51369;49.862;9.908;2024-01-15T01:45:30;97054.22;;;-1.10;73.50
64876;BME280;51369;49.862;9.908;2024-01-15T01:47:55;97067.44;;;-1.08;74.01
64876;BME280;51369;49.862;9.908;2024-01-15T01:50:21;97063.88;;;-1.07;73.70
64876;BME280;51369;49.862;9.908;2024-01-15T01:52:46;97064.75;;;-1.07;73.84
64876;BME280;51369;49.862;9.908;2024-01-15T01:55:12;97060.31;;;-1.06;74.42
64876;BME280;51369;49.862;9.908;2024-01-15T01:57:38;97059.44;;;-1.05;73.64
64876;BME280;51369;49.862;9.908;2024-01-15T02:00:04;97050.63;;;-1.07;73.35
64876;BME280;51369;49.862;9.908;2024-01-15T02:02:37;97060.31;;;-1.06;73.67
64876;BME280;51369;49.862;9.908;2024-01-15T02:05:04;97059.44;;;-1.05;73.59
64876;BME280;51369;49.862;9.908;2024-01-15T02:07:29;97056.78;;;-1.05;73.89
64876;BME280;51369;49.862;9.908;2024-01-15T02:09:56;97056.78;;;-1.05;73.21
64876;BME280;51369;49.862;9.908;2024-01-15T02:12:21;97054.13;;;-1.05;74.18
64876;BME280;51369;49.862;9.908;2024-01-15T02:14:47;97052.31;;;-1.03;74.12
64876;BME280;51369;49.862;9.908;2024-01-15T02:17:12;97056.75;;;-1.04;74.03
64876;BME280;51369;49.862;9.908;2024-01-15T02:19:37;97040.84;;;-1.04;74.58
64876;BME280;51369;49.862;9.908;2024-01-15T02:22:04;97038.19;;;-1.02;73.96
64876;BME280;51369;49.862;9.908;2024-01-15T02:24:30;97042.59;;;-1.01;74.59
64876;BME280;51369;49.862;9.908;2024-01-15T02:26:55;97046.09;;;-1.01;75.04
64876;BME280;51369;49.862;9.908;2024-01-15T02:29:21;97046.09;;;-1.01;74.33
64876;BME280;51369;49.862;9.908;2024-01-15T02:31:46;97033.72;;;-1.00;74.81
64876;BME280;51369;49.862;9.908;2024-01-15T02:34:11;97039.03;;;-1.00;75.02
64876;BME280;51369;49.862;9.908;2024-01-15T02:36:37;97032.81;;;-0.99;74.88
64876;BME280;51369;49.862;9.908;2024-01-15T02:39:02;97038.13;;;-0.99;74.85
64876;BME280;51369;49.862;9.908;2024-01-15T02:41:28;97043.41;;;-0.98;74.92
64876;BME280;51369;49.862;9.908;2024-01-15T02:43:53;97033.72;;;-1.00;74.52
64876;BME280;51369;49.862;9.908;2024-01-15T02:46:19;97037.22;;;-0.98;74.92
64876;BME280;51369;49.862;9.908;2024-01-15T02:48:44;97039.84;;;-0.96;74.99
64876;BME280;51369;49.862;9.908;2024-01-15T02:51:09;97031.00;;;-0.95;75.05
64876;BME280;51369;49.862;9.908;2024-01-15T02:53:36;97024.78;;;-0.94;74.88
64876;BME280;51369;49.862;9.908;2024-01-15T02:56:01;97037.09;;;-0.92;74.88
64876;BME280;51369;49.862;9.908;2024-01-15T02:58:26;97030.94;;;-0.92;75.01
64876;BME280;51369;49.862;9.908;2024-01-15T03:00:52;97031.78;;;-0.90;74.94
64876;BME280;51369;49.862;9.908;2024-01-15T03:03:17;97025.63;;;-0.91;75.10
64876;BME280;51369;49.862;9.908;2024-01-15T03:05:42;97024.72;;;-0.90;75.03
64876;BME280;51369;49.862;9.908;2024-01-15T03:08:08;97030.00;;;-0.90;74.98
64876;BME280;51369;49.862;9.908;2024-01-15T03:10:33;97030.88;;;-0.89;75.41
64876;BME280;51369;49.862;9.908;2024-01-15T03:12:58;97037.06;;;-0.89;75.34
64876;BME280;51369;49.862;9.908;2024-01-15T03:15:24;97043.22;;;-0.88;75.68
64876;BME280;51369;49.862;9.908;2024-01-15T03:17:49;97041.41;;;-0.86;74.89
64876;BME280;51369;49.862;9.908;2024-01-15T03:20:14;97036.09;;;-0.85;75.50
64876;BME280;51369;49.862;9.908;2024-01-15T03:22:40;97025.50;;;-0.85;75.51
64876;BME280;51369;49.862;9.908;2024-01-15T03:25:06;97039.59;;;-0.83;75.38
64876;BME280;51369;49.862;9.908;2024-01-15T03:27:31;97029.00;;;-0.84;74.91
64876;BME280;51369;49.862;9.908;2024-01-15T03:29:56;97028.97;;;-0.83;75.58
64876;BME280;51369;49.862;9.908;2024-01-15T03:32:22;97018.34;;;-0.81;75.10
64876;BME280;51369;49.862;9.908;2024-01-15T03:34:47;97010.38;;;-0.80;75.85
64876;BME280;51369;49.862;9.908;2024-01-15T03:37:13;97016.56;;;-0.79;75.74
64876;BME280;51369;49.862;9.908;2024-01-15T03:39:38;97009.44;;;-0.77;75.27
64876;BME280;51369;49.862;9.908;2024-01-15T03:42:04;97011.16;;;-0.75;75.92
64876;BME280;51369;49.862;9.908;2024-01-15T03:44:29;97013.81;;;-0.75;75.81
64876;BME280;51369;49.862;9.908;2024-01-15T03:46:55;97013.78;;;-0.73;75.85
64876;BME280;51369;49.862;9.908;2024-01-15T03:49:20;97008.44;;;-0.72;75.11
64876;BME280;51369;49.862;9.908;2024-01-15T03:51:45;97005.78;;;-0.70;75.80
64876;BME280;51369;49.862;9.908;2024-01-15T03:54:11;97004.88;;;-0.69;75.24
64876;BME280;51369;49.862;9.908;2024-01-15T03:56:37;97002.16;;;-0.66;75.40
64876;BME280;51369;49.862;9.908;2024-01-15T03:59:02;97015.38;;;-0.64;75.89
64876;BME280;51369;49.862;9.908;2024-01-15T04:01:28;97008.28;;;-0.64;75.94
64876;BME280;51369;49.862;9.908;2024-01-15T04:03:53;97005.59;;;-0.62;75.94
64876;BME280;51369;49.862;9.908;2024-01-15T04:06:19;97002.03;;;-0.60;75.51
64876;BME280;51369;49.862;9.908;2024-01-15T04:08:44;97006.41;;;-0.59;75.31
64876;BME280;51369;49.862;9.908;2024-01-15T04:11:09;97006.34;;;-0.56;75.30
64876;BME280;51369;49.862;9.908;2024-01-15T04:13:35;97001.94;;;-0.55;75.52
64876;BME280;51369;49.862;9.908;2024-01-15T04:16:01;97001.91;;;-0.54;75.16
64876;BME280;51369;49.862;9.908;2024-01-15T04:18:26;96996.56;;;-0.52;75.62
64876;BME280;51369;49.862;9.908;2024-01-15T04:20:52;96997.44;;;-0.52;75.35
64876;BME280;51369;49.862;9.908;2024-01-15T04:23:17;96996.50;;;-0.49;75.21
64876;BME280;51369;49.862;9.908;2024-01-15T04:25:43;96997.38;;;-0.49;75.36
64876;BME280;51369;49.862;9.908;2024-01-15T04:28:09;96995.59;;;-0.48;75.37
64876;BME280;51369;49.862;9.908;2024-01-15T04:30:34;96984.09;;;-0.47;75.18
64876;BME280;51369;49.862;9.908;2024-01-15T04:33:00;96998.19;;;-0.45;75.64
64876;BME280;51369;49.862;9.908;2024-01-15T04:35:26;96992.00;;;-0.46;75.28
64876;BME280;51369;49.862;9.908;2024-01-15T04:37:51;96993.75;;;-0.45;75.33
64876;BME280;51369;49.862;9.908;2024-01-15T04:40:18;96993.72;;;-0.43;74.91
64876;BME280;51369;49.862;9.908;2024-01-15T04:42:43;96979.59;;;-0.44;75.39
64876;BME280;51369;49.862;9.908;2024-01-15T04:45:11;96991.94;;;-0.43;75.45
64876;BME280;51369;49.862;9.908;2024-01-15T04:47:36;96992.81;;;-0.42;75.61
64876;BME280;51369;49.862;9.908;2024-01-15T04:50:03;96987.47;;;-0.41;75.81
64876;BME280;51369;49.862;9.908;2024-01-15T04:52:28;97000.72;;;-0.41;76.11
64876;BME280;51369;49.862;9.908;2024-01-15T04:54:54;96995.41;;;-0.39;76.15
64876;BME280;51369;49.862;9.908;2024-01-15T04:57:19;96997.13;;;-0.38;76.41
64876;BME280;51369;49.862;9.908;2024-01-15T04:59:45;96998.00;;;-0.38;76.12
64876;BME280;51369;49.862;9.908;2024-01-15T05:02:10;96977.69;;;-0.37;75.83
64876;BME280;51369;49.862;9.908;2024-01-15T05:04:37;96976.78;;;-0.36;76.44
64876;BME280;51369;49.862;9.908;2024-01-15T05:07:03;96988.25;;;-0.36;76.04
64876;BME280;51369;49.862;9.908;2024-01-15T05:09:28;96982.91;;;-0.34;76.62
64876;BME280;51369;49.862;9.908;2024-01-15T05:11:54;96982.03;;;-0.35;76.08
64876;BME280;51369;49.862;9.908;2024-01-15T05:14:19;96984.69;;;-0.35;76.45
64876;BME280;51369;49.862;9.908;2024-01-15T05:16:48;96982.03;;;-0.35;76.72
64876;BME280;51369;49.862;9.908;2024-01-15T05:19:14;96967.84;;;-0.32;76.09
64876;BME280;51369;49.862;9.908;2024-01-15T05:21:40;96972.28;;;-0.32;76.92
64876;BME280;51369;49.862;9.908;2024-01-15T05:24:05;96967.84;;;-0.32;76.40
64876;BME280;51369;49.862;9.908;2024-01-15T05:26:31;96971.34;;;-0.30;77.13
64876;BME280;51369;49.862;9.908;2024-01-15T05:28:56;96964.25;;;-0.29;76.37
64876;BME280;51369;49.862;9.908;2024-01-15T05:31:22;96965.13;;;-0.29;76.81
64876;BME280;51369;49.862;9.908;2024-01-15T05:33:48;96958.03;;;-0.28;76.73
64876;BME280;51369;49.862;9.908;2024-01-15T05:36:13;96967.75;;;-0.27;77.05
64876;BME280;51369;49.862;9.908;2024-01-15T05:38:39;96965.97;;;-0.27;76.85
64876;BME280;51369;49.862;9.908;2024-01-15T05:41:05;96962.41;;;-0.26;76.94
64876;BME280;51369;49.862;9.908;2024-01-15T05:43:30;96964.16;;;-0.25;76.89
64876;BME280;51369;49.862;9.908;2024-01-15T05:45:56;96963.28;;;-0.25;76.72
64876;BME280;51369;49.862;9.908;2024-01-15T05:48:21;96954.41;;;-0.24;76.74
64876;BME280;51369;49.862;9.908;2024-01-15T05:50:46;96960.59;;;-0.24;76.61
64876;BME280;51369;49.862;9.908;2024-01-15T05:53:12;96968.56;;;-0.25;77.19
64876;BME280;51369;49.862;9.908;2024-01-15T05:55:37;96970.34;;;-0.26;76.92
64876;BME280;51369;49.862;9.908;2024-01-15T05:58:03;96957.13;;;-0.27;77.16
64876;BME280;51369;49.862;9.908;2024-01-15T06:00:29;96960.69;;;-0.28;77.67
64876;BME280;51369;49.862;9.908;2024-01-15T06:02:54;96959.81;;;-0.29;77.10
64876;BME280;51369;49.862;9.908;2024-01-15T06:05:20;96958.94;;;-0.29;77.84
64876;BME280;51369;49.862;9.908;2024-01-15T06:07:45;96956.31;;;-0.31;77.42
64876;BME280;51369;49.862;9.908;2024-01-15T06:10:10;96957.22;;;-0.32;77.58
64876;BME280;51369;49.862;9.908;2024-01-15T06:12:36;96962.56;;;-0.34;77.49
64876;BME280;51369;49.862;9.908;2024-01-15T06:15:01;96955.53;;;-0.35;77.28
64876;BME280;51369;49.862;9.908;2024-01-15T06:17:27;96961.72;;;-0.36;77.22
64876;BME280;51369;49.862;9.908;2024-01-15T06:19:52;96957.31;;;-0.35;77.78
64876;BME280;51369;49.862;9.908;2024-01-15T06:22:18;96960.84;;;-0.36;77.41
64876;BME280;51369;49.862;9.908;2024-01-15T06:24:43;96959.13;;;-0.37;77.74
64876;BME280;51369;49.862;9.908;2024-01-15T06:27:08;96961.81;;;-0.39;77.79
64876;BME280;51369;49.862;9.908;2024-01-15T06:29:37;96959.13;;;-0.37;77.32
64876;BME280;51369;49.862;9.908;2024-01-15T06:32:03;96965.31;;;-0.38;77.19
64876;BME280;51369;49.862;9.908;2024-01-15T06:34:28;96955.63;;;-0.39;77.31
64876;BME280;51369;49.862;9.908;2024-01-15T06:36:53;96957.38;;;-0.38;77.32
64876;BME280;51369;49.862;9.908;2024-01-15T06:39:19;96946.75;;;-0.38;77.66
64876;BME280;51369;49.862;9.908;2024-01-15T06:41:44;96959.13;;;-0.37;77.10
64876;BME280;51369;49.862;9.908;2024-01-15T06:44:10;96960.00;;;-0.37;77.40
64876;BME280;51369;49.862;9.908;2024-01-15T06:46:36;96952.06;;;-0.38;78.04
64876;BME280;51369;49.862;9.908;2024-01-15T06:49:01;96951.16;;;-0.37;77.61
64876;BME280;51369;49.862;9.908;2024-01-15T06:51:28;96965.28;;;-0.37;77.69
64876;BME280;51369;49.862;9.908;2024-01-15T06:53:54;96952.03;;;-0.37;77.92
64876;BME280;51369;49.862;9.908;2024-01-15T06:56:20;96962.63;;;-0.37;77.88
64876;BME280;51369;49.862;9.908;2024-01-15T06:58:45;96953.81;;;-0.37;77.23
64876;BME280;51369;49.862;9.908;2024-01-15T07:01:11;96958.25;;;-0.38;77.59
64876;BME280;51369;49.862;9.908;2024-01-15T07:03:37;96952.03;;;-0.37;78.01
64876;BME280;51369;49.862;9.908;2024-01-15T07:06:03;96956.50;;;-0.39;77.35
64876;BME280;51369;49.862;9.908;2024-01-15T07:08:28;96954.75;;;-0.40;78.24
64876;BME280;51369;49.862;9.908;2024-01-15T07:10:54;96960.94;;;-0.39;77.77
64876;BME280;51369;49.862;9.908;2024-01-15T07:13:19;96958.31;;;-0.41;78.08
64876;BME280;51369;49.862;9.908;2024-01-15T07:15:44;96960.09;;;-0.41;77.84
64876;BME280;51369;49.862;9.908;2024-01-15T07:18:10;96960.09;;;-0.41;78.23
64876;BME280;51369;49.862;9.908;2024-01-15T07:20:35;96955.69;;;-0.42;78.39
64876;BME280;51369;49.862;9.908;2024-01-15T07:23:01;96975.16;;;-0.43;78.03
64876;BME280;51369;49.862;9.908;2024-01-15T07:25:26;96968.09;;;-0.44;77.99
64876;BME280;51369;49.862;9.908;2024-01-15T07:27:51;96977.81;;;-0.43;78.42
64876;BME280;51369;49.862;9.908;2024-01-15T07:30:19;96981.34;;;-0.43;78.66
64876;BME280;51369;49.862;9.908;2024-01-15T07:32:44;96982.25;;;-0.44;78.50
64876;BME280;51369;49.862;9.908;2024-01-15T07:35:10;96976.91;;;-0.42;78.39
64876;BME280;51369;49.862;9.908;2024-01-15T07:37:35;96978.69;;;-0.43;78.69
64876;BME280;51369;49.862;9.908;2024-01-15T07:40:00;96990.16;;;-0.42;78.46
64876;BME280;51369;49.862;9.908;2024-01-15T07:42:26;96989.25;;;-0.41;78.27
64876;BME280;51369;49.862;9.908;2024-01-15T07:44:51;96983.94;;;-0.41;78.43
64876;BME280;51369;49.862;9.908;2024-01-15T07:47:17;96991.00;;;-0.40;78.67
64876;BME280;51369;49.862;9.908;2024-01-15T07:49:42;96986.56;;;-0.40;78.47
64876;BME280;51369;49.862;9.908;2024-01-15T07:52:07;96989.22;;;-0.40;78.54
64876;BME280;51369;49.862;9.908;2024-01-15T07:54:33;96986.56;;;-0.40;78.69
64876;BME280;51369;49.862;9.908;2024-01-15T07:57:00;96995.38;;;-0.38;79.18
64876;BME280;51369;49.862;9.908;2024-01-15T07:59:26;96990.88;;;-0.34;79.21
64876;BME280;51369;49.862;9.908;2024-01-15T08:01:52;96985.50;;;-0.31;78.82
64876;BME280;51369;49.862;9.908;2024-01-15T08:04:19;96990.72;;;-0.28;79.09
64876;BME280;51369;49.862;9.908;2024-01-15T08:06:44;96983.63;;;-0.26;78.74
64876;BME280;51369;49.862;9.908;2024-01-15T08:09:10;96978.25;;;-0.23;78.68
64876;BME280;51369;49.862;9.908;2024-01-15T08:11:36;96984.38;;;-0.21;78.62
64876;BME280;51369;49.862;9.908;2024-01-15T08:14:04;96986.06;;;-0.17;78.98
64876;BME280;51369;49.862;9.908;2024-01-15T08:16:29;96985.09;;;-0.13;78.81
64876;BME280;51369;49.862;9.908;2024-01-15T08:18:54;96977.94;;;-0.09;78.62
64876;BME280;51369;49.862;9.908;2024-01-15T08:21:20;96970.78;;;-0.06;78.76
64876;BME280;51369;49.862;9.908;2024-01-15T08:23:46;96971.59;;;-0.04;78.23
64876;BME280;51369;49.862;9.908;2024-01-15T08:26:11;96960.84;;;0.01;78.13
64876;BME280;51369;49.862;9.908;2024-01-15T08:28:37;96956.34;;;0.05;78.69
64876;BME280;51369;49.862;9.908;2024-01-15T08:31:02;96954.44;;;0.10;78.71
64876;BME280;51369;49.862;9.908;2024-01-15T08:33:28;96951.66;;;0.16;78.11
64876;BME280;51369;49.862;9.908;2024-01-15T08:35:54;96954.16;;;0.22;78.41
64876;BME280;51369;49.862;9.908;2024-01-15T08:38:20;96948.69;;;0.28;78.07
64876;BME280;51369;49.862;9.908;2024-01-15T08:40:45;96947.66;;;0.33;77.76
64876;BME280;51369;49.862;9.908;2024-01-15T08:43:11;96944.91;;;0.38;77.28
64876;BME280;51369;49.862;9.908;2024-01-15T08:45:36;96944.78;;;0.43;77.34
64876;BME280;51369;49.862;9.908;2024-01-15T08:48:01;96941.09;;;0.48;77.56
64876;BME280;51369;49.862;9.908;2024-01-15T08:50:27;96947.19;;;0.52;77.44
64876;BME280;51369;49.862;9.908;2024-01-15T08:52:52;96952.44;;;0.55;77.02
64876;BME280;51369;49.862;9.908;2024-01-15T08:55:18;96946.13;;;0.59;77.17
64876;BME280;51369;49.862;9.908;2024-01-15T08:57:43;96954.00;;;0.62;76.49
64876;BME280;51369;49.862;9.908;2024-01-15T09:00:09;96946.91;;;0.62;77.06
64876;BME280;51369;49.862;9.908;2024-01-15T09:02:35;96950.38;;;0.66;76.06
64876;BME280;51369;49.862;9.908;2024-01-15T09:05:01;96945.00;;;0.68;76.70
64876;BME280;51369;49.862;9.908;2024-01-15T09:07:26;96947.59;;;0.71;76.58
64876;BME280;51369;49.862;9.908;2024-01-15T09:09:52;96946.69;;;0.72;75.75
64876;BME280;51369;49.862;9.908;2024-01-15T09:12:18;96950.16;;;0.74;76.42
64876;BME280;51369;49.862;9.908;2024-01-15T09:14:46;96968.72;;;0.75;76.27
64876;BME280;51369;49.862;9.908;2024-01-15T09:17:11;96960.72;;;0.77;75.18
64876;BME280;51369;49.862;9.908;2024-01-15T09:19:36;96963.38;;;0.77;75.97
64876;BME280;51369;49.862;9.908;2024-01-15T09:22:02;96969.56;;;0.77;75.17
64876;BME280;51369;49.862;9.908;2024-01-15T09:24:27;96963.31;;;0.78;75.65
64876;BME280;51369;49.862;9.908;2024-01-15T09:26:53;96965.06;;;0.79;74.96
64876;BME280;51369;49.862;9.908;2024-01-15T09:29:18;96966.81;;;0.80;75.74
64876;BME280;51369;49.862;9.908;2024-01-15T09:31:43;96975.69;;;0.79;76.02
64876;BME280;51369;49.862;9.908;2024-01-15T09:34:09;96982.78;;;0.79;75.38
64876;BME280;51369;49.862;9.908;2024-01-15T09:36:41;96986.34;;;0.78;76.06
64876;BME280;51369;49.862;9.908;2024-01-15T09:39:09;96980.13;;;0.79;74.84
64876;BME280;51369;49.862;9.908;2024-01-15T09:41:36;96981.91;;;0.78;75.48
64876;BME280;51369;49.862;9.908;2024-01-15T09:44:03;96978.38;;;0.78;75.74
64876;BME280;51369;49.862;9.908;2024-01-15T09:46:30;96974.88;;;0.77;75.27
64876;BME280;51369;49.862;9.908;2024-01-15T09:48:56;96974.81;;;0.79;76.12
64876;BME280;51369;49.862;9.908;2024-01-15T09:51:21;96972.16;;;0.79;76.41
64876;BME280;51369;49.862;9.908;2024-01-15T09:53:47;96974.81;;;0.79;75.45
64876;BME280;51369;49.862;9.908;2024-01-15T09:56:14;96957.06;;;0.81;75.62
64876;BME280;51369;49.862;9.908;2024-01-15T09:58:39;96965.03;;;0.81;75.86
64876;BME280;51369;49.862;9.908;2024-01-15T10:01:07;96957.88;;;0.83;76.56
64876;BME280;51369;49.862;9.908;2024-01-15T10:03:33;96957.84;;;0.84;76.30
64876;BME280;51369;49.862;9.908;2024-01-15T10:05:59;96956.94;;;0.85;77.06
64876;BME280;51369;49.862;9.908;2024-01-15T10:08:25;96955.06;;;0.89;77.16
64876;BME280;51369;49.862;9.908;2024-01-15T10:10:50;96946.09;;;0.93;76.94
64876;BME280;51369;49.862;9.908;2024-01-15T10:13:16;96943.31;;;0.97;76.44
64876;BME280;51369;49.862;9.908;2024-01-15T10:15:45;96940.56;;;1.01;76.91
64876;BME280;51369;49.862;9.908;2024-01-15T10:18:12;96936.00;;;1.06;77.09
64876;BME280;51369;49.862;9.908;2024-01-15T10:20:38;96935.88;;;1.10;76.27
64876;BME280;51369;49.862;9.908;2024-01-15T10:23:04;96933.00;;;1.18;76.68
64876;BME280;51369;49.862;9.908;2024-01-15T10:25:30;96923.97;;;1.23;76.91
64876;BME280;51369;49.862;9.908;2024-01-15T10:28:03;96923.78;;;1.29;77.26
64876;BME280;51369;49.862;9.908;2024-01-15T10:30:30;96906.75;;;1.37;76.95
64876;BME280;51369;49.862;9.908;2024-01-15T10:33:00;96903.03;;;1.42;76.07
64876;BME280;51369;49.862;9.908;2024-01-15T10:35:27;96904.63;;;1.48;75.51
64876;BME280;51369;49.862;9.908;2024-01-15T10:37:53;96898.25;;;1.53;75.98
64876;BME280;51369;49.862;9.908;2024-01-15T10:40:18;96892.75;;;1.59;76.20
64876;BME280;51369;49.862;9.908;2024-01-15T10:42:44;96884.53;;;1.67;76.47
64876;BME280;51369;49.862;9.908;2024-01-15T10:45:09;96892.31;;;1.73;76.02
64876;BME280;51369;49.862;9.908;2024-01-15T10:47:35;96882.41;;;1.77;75.17
64876;BME280;51369;49.862;9.908;2024-01-15T10:50:01;96887.63;;;1.80;75.30
64876;BME280;51369;49.862;9.908;2024-01-15T10:52:28;96899.00;;;1.85;75.84
64876;BME280;51369;49.862;9.908;2024-01-15T10:54:54;96897.06;;;1.90;75.24
64876;BME280;51369;49.862;9.908;2024-01-15T10:57:21;96899.53;;;1.96;75.09
64876;BME280;51369;49.862;9.908;2024-01-15T10:59:47;96898.50;;;2.00;74.79
64876;BME280;51369;49.862;9.908;2024-01-15T11:02:14;96898.41;;;2.03;74.75
64876;BME280;51369;49.862;9.908;2024-01-15T11:04:40;96893.00;;;2.06;75.39
64876;BME280;51369;49.862;9.908;2024-01-15T11:07:05;96883.00;;;2.13;74.85
64876;BME280;51369;49.862;9.908;2024-01-15T11:09:31;96878.41;;;2.18;74.41
64876;BME280;51369;49.862;9.908;2024-01-15T11:12:11;96864.06;;;2.22;74.97
64876;BME280;51369;49.862;9.908;2024-01-15T11:14:41;96876.25;;;2.29;74.24
64876;BME280;51369;49.862;9.908;2024-01-15T11:17:10;96870.72;;;2.35;74.05
64876;BME280;51369;49.862;9.908;2024-01-15T11:19:36;96869.63;;;2.41;74.74
64876;BME280;51369;49.862;9.908;2024-01-15T11:22:03;96858.81;;;2.45;74.89
64876;BME280;51369;49.862;9.908;2024-01-15T11:27:01;96849.81;;;2.49;73.69
64876;BME280;51369;49.862;9.908;2024-01-15T11:32:01;96856.91;;;2.49;74.06
64876;BME280;51369;49.862;9.908;2024-01-15T11:37:23;96848.06;;;2.48;74.38
64876;BME280;51369;49.862;9.908;2024-01-15T11:39:51;96856.16;;;2.45;73.02
64876;BME280;51369;49.862;9.908;2024-01-15T11:42:17;96850.94;;;2.42;73.98
64876;BME280;51369;49.862;9.908;2024-01-15T11:44:45;96846.66;;;2.38;74.29
64876;BME280;51369;49.862;9.908;2024-01-15T11:47:11;96854.69;;;2.37;74.24
64876;BME280;51369;49.862;9.908;2024-01-15T11:50:01;96867.13;;;2.36;73.90
64876;BME280;51369;49.862;9.908;2024-01-15T11:52:32;96864.47;;;2.36;73.28
64876;BME280;51369;49.862;9.908;2024-01-15T11:55:10;96874.34;;;2.33;73.73
64876;BME280;51369;49.862;9.908;2024-01-15T12:00:08;96874.47;;;2.29;73.61
64876;BME280;51369;49.862;9.908;2024-01-15T12:02:39;96879.03;;;2.26;73.05
64876;BME280;51369;49.862;9.908;2024-01-15T12:05:05;96873.78;;;2.23;72.62
64876;BME280;51369;49.862;9.908;2024-01-15T12:07:30;96877.44;;;2.20;72.97
64876;BME280;51369;49.862;9.908;2024-01-15T12:09:56;96880.97;;;2.21;73.21
64876;BME280;51369;49.862;9.908;2024-01-15T12:12:29;96881.06;;;2.18;73.43
64876;BME280;51369;49.862;9.908;2024-01-15T12:14:59;96870.41;;;2.18;72.18
64876;BME280;51369;49.862;9.908;2024-01-15T12:17:24;96866.06;;;2.15;73.00
64876;BME280;51369;49.862;9.908;2024-01-15T12:19:50;96865.25;;;2.13;72.59
64876;BME280;51369;49.862;9.908;2024-01-15T12:22:15;96857.22;;;2.15;73.34
64876;BME280;51369;49.862;9.908;2024-01-15T12:24:41;96851.06;;;2.13;72.62
64876;BME280;51369;49.862;9.908;2024-01-15T12:27:07;96852.84;;;2.12;73.28
64876;BME280;51369;49.862;9.908;2024-01-15T12:29:33;96845.78;;;2.11;73.37
64876;BME280;51369;49.862;9.908;2024-01-15T12:31:58;96856.44;;;2.11;72.98
64876;BME280;51369;49.862;9.908;2024-01-15T12:34:23;96851.16;;;2.10;73.29
64876;BME280;51369;49.862;9.908;2024-01-15T12:36:49;96850.34;;;2.08;72.36
64876;BME280;51369;49.862;9.908;2024-01-15T12:39:15;96848.56;;;2.08;72.62
64876;BME280;51369;49.862;9.908;2024-01-15T12:41:41;96845.94;;;2.07;73.08
64876;BME280;51369;49.862;9.908;2024-01-15T12:44:06;96837.91;;;2.08;73.52
64876;BME280;51369;49.862;9.908;2024-01-15T12:46:32;96844.16;;;2.07;73.53
64876;BME280;51369;49.862;9.908;2024-01-15T12:48:57;96838.69;;;2.12;73.89
64876;BME280;51369;49.862;9.908;2024-01-15T12:51:26;96839.44;;;2.15;72.81
64876;BME280;51369;49.862;9.908;2024-01-15T12:53:51;96841.13;;;2.18;73.82
64876;BME280;51369;49.862;9.908;2024-01-15T12:56:17;96831.25;;;2.21;73.94
64876;BME280;51369;49.862;9.908;2024-01-15T12:58:42;96831.09;;;2.26;73.34
64876;BME280;51369;49.862;9.908;2024-01-15T13:01:08;96826.47;;;2.31;73.85
64876;BME280;51369;49.862;9.908;2024-01-15T13:03:33;96822.88;;;2.32;73.49
64876;BME280;51369;49.862;9.908;2024-01-15T13:05:58;96824.56;;;2.35;73.70
64876;BME280;51369;49.862;9.908;2024-01-15T13:08:24;96817.41;;;2.37;73.58